sensor_id;sensor_type;location;lat;lon;timestamp;temperature;humidity
48912;DHT22;34722;52.108;5.044;2022-08-30T00:00:38;15.90;99.90
48912;DHT22;34722;52.108;5.044;2022-08-30T00:03:23;15.90;99.90
48912;DHT22;34722;52.108;5.044;2022-08-30T00:05:49;15.90;99.90
48912;DHT22;34722;52.108;5.044;2022-08-30T00:08:15;15.90;99.90
48912;DHT22;34722;52.108;5.044;2022-08-30T00:10:43;15.90;99.90
48912;DHT22;34722;52.108;5.044;2022-08-30T00:13:09;15.80;99.90
48912;DHT22;34722;52.108;5.044;2022-08-30T00:15:40;15.80;99.90
48912;DHT22;34722;52.108;5.044;2022-08-30T00:18:07;15.80;99.90
48912;DHT22;34722;52.108;5.044;2022-08-30T00:20:34;15.80;99.90
48912;DHT22;34722;52.108;5.044;2022-08-30T00:23:01;15.80;99.90
48912;DHT22;34722;52.108;5.044;2022-08-30T00:25:27;15.80;99.90
48912;DHT22;34722;52.108;5.044;2022-08-30T00:27:53;15.80;99.90
48912;DHT22;34722;52.108;5.044;2022-08-30T00:30:19;15.70;99.90
48912;DHT22;34722;52.108;5.044;2022-08-30T00:32:51;15.70;99.90
48912;DHT22;34722;52.108;5.044;2022-08-30T00:35:18;15.70;99.90
48912;DHT22;34722;52.108;5.044;2022-08-30T00:37:47;15.60;99.90
48912;DHT22;34722;52.108;5.044;2022-08-30T00:40:13;15.60;99.90
48912;DHT22;34722;52.108;5.044;2022-08-30T00:42:44;15.60;99.90
48912;DHT22;34722;52.108;5.044;2022-08-30T00:45:23;15.60;99.90
48912;DHT22;34722;52.108;5.044;2022-08-30T00:47:50;15.50;99.90
48912;DHT22;34722;52.108;5.044;2022-08-30T00:50:19;15.50;99.90
48912;DHT22;34722;52.108;5.044;2022-08-30T00:52:48;15.50;99.90
48912;DHT22;34722;52.108;5.044;2022-08-30T00:55:20;15.50;99.90
48912;DHT22;34722;52.108;5.044;2022-08-30T00:57:47;15.50;99.90
48912;DHT22;34722;52.108;5.044;2022-08-30T01:00:18;15.50;99.90
48912;DHT22;34722;52.108;5.044;2022-08-30T01:02:44;15.40;99.90
48912;DHT22;34722;52.108;5.044;2022-08-30T01:05:13;15.40;99.90
48912;DHT22;34722;52.108;5.044;2022-08-30T01:07:40;15.40;99.90
48912;DHT22;34722;52.108;5.044;2022-08-30T01:10:08;15.40;99.90
48912;DHT22;34722;52.108;5.044;2022-08-30T01:12:37;15.40;99.90
48912;DHT22;34722;52.108;5.044;2022-08-30T01:15:05;15.40;99.90
48912;DHT22;34722;52.108;5.044;2022-08-30T01:17:34;15.40;99.90
48912;DHT22;34722;52.108;5.044;2022-08-30T01:20:04;15.40;99.90
48912;DHT22;34722;52.108;5.044;2022-08-30T01:25:24;15.50;99.90
48912;DHT22;34722;52.108;5.044;2022-08-30T01:28:06;15.60;99.90
48912;DHT22;34722;52.108;5.044;2022-08-30T01:30:36;15.60;99.90
48912;DHT22;34722;52.108;5.044;2022-08-30T01:33:09;15.60;99.90
48912;DHT22;34722;52.108;5.044;2022-08-30T01:38:11;15.60;99.90
48912;DHT22;34722;52.108;5.044;2022-08-30T01:40:38;15.70;99.90
48912;DHT22;34722;52.108;5.044;2022-08-30T01:43:05;15.70;99.90
48912;DHT22;34722;52.108;5.044;2022-08-30T01:45:36;15.70;99.90
48912;DHT22;34722;52.108;5.044;2022-08-30T01:48:02;15.70;99.90
48912;DHT22;34722;52.108;5.044;2022-08-30T01:53:33;15.70;99.90
48912;DHT22;34722;52.108;5.044;2022-08-30T01:55:58;15.70;99.90
48912;DHT22;34722;52.108;5.044;2022-08-30T01:58:27;15.70;99.90
48912;DHT22;34722;52.108;5.044;2022-08-30T02:00:54;15.70;99.90
48912;DHT22;34722;52.108;5.044;2022-08-30T02:03:20;15.70;99.90
48912;DHT22;34722;52.108;5.044;2022-08-30T02:05:46;15.70;99.90
48912;DHT22;34722;52.108;5.044;2022-08-30T02:08:12;15.70;99.90
48912;DHT22;34722;52.108;5.044;2022-08-30T02:10:38;15.80;99.90
48912;DHT22;34722;52.108;5.044;2022-08-30T02:13:04;15.80;99.90
48912;DHT22;34722;52.108;5.044;2022-08-30T02:15:35;15.80;99.90
48912;DHT22;34722;52.108;5.044;2022-08-30T02:18:04;15.80;99.90
48912;DHT22;34722;52.108;5.044;2022-08-30T02:20:30;15.80;99.90
48912;DHT22;34722;52.108;5.044;2022-08-30T02:22:56;15.80;99.90
48912;DHT22;34722;52.108;5.044;2022-08-30T02:25:21;15.80;99.90
48912;DHT22;34722;52.108;5.044;2022-08-30T02:27:47;15.80;99.90
48912;DHT22;34722;52.108;5.044;2022-08-30T02:30:13;15.80;99.90
48912;DHT22;34722;52.108;5.044;2022-08-30T02:32:39;15.80;99.90
48912;DHT22;34722;52.108;5.044;2022-08-30T02:35:06;15.80;99.90
48912;DHT22;34722;52.108;5.044;2022-08-30T02:37:32;15.70;99.90
48912;DHT22;34722;52.108;5.044;2022-08-30T02:39:57;15.70;99.90
48912;DHT22;34722;52.108;5.044;2022-08-30T02:42:23;15.60;99.90
48912;DHT22;34722;52.108;5.044;2022-08-30T02:44:49;15.50;99.90
48912;DHT22;34722;52.108;5.044;2022-08-30T02:47:15;15.50;99.90
48912;DHT22;34722;52.108;5.044;2022-08-30T02:49:41;15.40;99.90
48912;DHT22;34722;52.108;5.044;2022-08-30T02:52:06;15.40;99.90
48912;DHT22;34722;52.108;5.044;2022-08-30T02:54:32;15.30;99.90
48912;DHT22;34722;52.108;5.044;2022-08-30T02:56:59;15.40;99.90
48912;DHT22;34722;52.108;5.044;2022-08-30T02:59:29;15.20;99.90
48912;DHT22;34722;52.108;5.044;2022-08-30T03:01:55;15.20;99.90
48912;DHT22;34722;52.108;5.044;2022-08-30T03:04:21;15.20;99.90
48912;DHT22;34722;52.108;5.044;2022-08-30T03:06:48;15.10;99.90
48912;DHT22;34722;52.108;5.044;2022-08-30T03:09:13;15.10;99.90
48912;DHT22;34722;52.108;5.044;2022-08-30T03:11:39;15.10;99.90
48912;DHT22;34722;52.108;5.044;2022-08-30T03:14:06;15.00;99.90
48912;DHT22;34722;52.108;5.044;2022-08-30T03:16:32;15.00;99.90
48912;DHT22;34722;52.108;5.044;2022-08-30T03:18:58;15.00;99.90
48912;DHT22;34722;52.108;5.044;2022-08-30T03:21:23;15.00;99.90
48912;DHT22;34722;52.108;5.044;2022-08-30T03:23:49;15.00;99.90
48912;DHT22;34722;52.108;5.044;2022-08-30T03:26:15;15.00;99.90
48912;DHT22;34722;52.108;5.044;2022-08-30T03:28:41;14.90;99.90
48912;DHT22;34722;52.108;5.044;2022-08-30T03:31:08;15.00;99.90
48912;DHT22;34722;52.108;5.044;2022-08-30T03:33:35;15.00;99.90
48912;DHT22;34722;52.108;5.044;2022-08-30T03:36:01;14.90;99.90
48912;DHT22;34722;52.108;5.044;2022-08-30T03:38:29;14.90;99.90
48912;DHT22;34722;52.108;5.044;2022-08-30T03:40:55;14.80;99.90
48912;DHT22;34722;52.108;5.044;2022-08-30T03:43:21;14.80;99.90
48912;DHT22;34722;52.108;5.044;2022-08-30T03:45:48;14.90;99.90
48912;DHT22;34722;52.108;5.044;2022-08-30T03:48:14;14.90;99.90
48912;DHT22;34722;52.108;5.044;2022-08-30T03:50:40;14.90;99.90
48912;DHT22;34722;52.108;5.044;2022-08-30T03:53:06;14.80;99.90
48912;DHT22;34722;52.108;5.044;2022-08-30T03:55:32;14.70;99.90
48912;DHT22;34722;52.108;5.044;2022-08-30T03:57:58;14.70;99.90
48912;DHT22;34722;52.108;5.044;2022-08-30T04:00:24;14.70;99.90
48912;DHT22;34722;52.108;5.044;2022-08-30T04:02:50;14.70;99.90
48912;DHT22;34722;52.108;5.044;2022-08-30T04:05:16;14.70;99.90
48912;DHT22;34722;52.108;5.044;2022-08-30T04:07:42;14.70;99.90
48912;DHT22;34722;52.108;5.044;2022-08-30T04:10:08;14.70;99.90
48912;DHT22;34722;52.108;5.044;2022-08-30T04:12:35;14.70;99.90
48912;DHT22;34722;52.108;5.044;2022-08-30T04:15:02;14.70;99.90
48912;DHT22;34722;52.108;5.044;2022-08-30T04:17:28;14.60;99.90
48912;DHT22;34722;52.108;5.044;2022-08-30T04:19:54;14.60;99.90
48912;DHT22;34722;52.108;5.044;2022-08-30T04:22:20;14.60;99.90
48912;DHT22;34722;52.108;5.044;2022-08-30T04:24:46;14.60;99.90
48912;DHT22;34722;52.108;5.044;2022-08-30T04:27:12;14.60;99.90
48912;DHT22;34722;52.108;5.044;2022-08-30T04:29:38;14.60;99.90
48912;DHT22;34722;52.108;5.044;2022-08-30T04:32:04;14.60;99.90
48912;DHT22;34722;52.108;5.044;2022-08-30T04:34:30;14.60;99.90
48912;DHT22;34722;52.108;5.044;2022-08-30T04:36:55;14.70;99.90
48912;DHT22;34722;52.108;5.044;2022-08-30T04:39:21;14.70;99.90
48912;DHT22;34722;52.108;5.044;2022-08-30T04:41:47;14.70;99.90
48912;DHT22;34722;52.108;5.044;2022-08-30T04:44:13;14.70;99.90
48912;DHT22;34722;52.108;5.044;2022-08-30T04:46:40;14.70;99.90
48912;DHT22;34722;52.108;5.044;2022-08-30T04:49:06;14.70;99.90
48912;DHT22;34722;52.108;5.044;2022-08-30T04:51:32;14.70;99.90
48912;DHT22;34722;52.108;5.044;2022-08-30T04:53:58;14.70;99.90
48912;DHT22;34722;52.108;5.044;2022-08-30T04:56:24;14.70;99.90
48912;DHT22;34722;52.108;5.044;2022-08-30T04:58:52;14.70;99.90
48912;DHT22;34722;52.108;5.044;2022-08-30T05:01:27;14.70;99.90
48912;DHT22;34722;52.108;5.044;2022-08-30T05:03:54;14.70;99.90
48912;DHT22;34722;52.108;5.044;2022-08-30T05:06:21;14.70;99.90
48912;DHT22;34722;52.108;5.044;2022-08-30T05:08:47;14.70;99.90
48912;DHT22;34722;52.108;5.044;2022-08-30T05:11:14;14.70;99.90
48912;DHT22;34722;52.108;5.044;2022-08-30T05:13:41;14.70;99.90
48912;DHT22;34722;52.108;5.044;2022-08-30T05:16:10;14.70;99.90
48912;DHT22;34722;52.108;5.044;2022-08-30T05:18:45;14.80;99.90
48912;DHT22;34722;52.108;5.044;2022-08-30T05:21:15;14.80;99.90
48912;DHT22;34722;52.108;5.044;2022-08-30T05:23:42;14.80;99.90
48912;DHT22;34722;52.108;5.044;2022-08-30T05:26:14;14.80;99.90
48912;DHT22;34722;52.108;5.044;2022-08-30T05:28:41;14.80;99.90
48912;DHT22;34722;52.108;5.044;2022-08-30T05:31:22;14.90;99.90
48912;DHT22;34722;52.108;5.044;2022-08-30T05:33:49;14.90;99.90
48912;DHT22;34722;52.108;5.044;2022-08-30T05:36:17;15.00;99.90
48912;DHT22;34722;52.108;5.044;2022-08-30T05:38:43;15.00;99.90
48912;DHT22;34722;52.108;5.044;2022-08-30T05:41:10;15.00;99.90
48912;DHT22;34722;52.108;5.044;2022-08-30T05:43:36;15.00;99.90
48912;DHT22;34722;52.108;5.044;2022-08-30T05:46:08;15.10;99.90
48912;DHT22;34722;52.108;5.044;2022-08-30T05:48:35;15.10;99.90
48912;DHT22;34722;52.108;5.044;2022-08-30T05:51:04;15.20;99.90
48912;DHT22;34722;52.108;5.044;2022-08-30T05:53:30;15.20;99.90
48912;DHT22;34722;52.108;5.044;2022-08-30T05:55:56;15.30;99.90
48912;DHT22;34722;52.108;5.044;2022-08-30T05:58:21;15.30;99.90
48912;DHT22;34722;52.108;5.044;2022-08-30T06:00:52;15.40;99.90
48912;DHT22;34722;52.108;5.044;2022-08-30T06:03:18;15.50;99.90
48912;DHT22;34722;52.108;5.044;2022-08-30T06:05:47;15.50;99.90
48912;DHT22;34722;52.108;5.044;2022-08-30T06:08:13;15.70;99.90
48912;DHT22;34722;52.108;5.044;2022-08-30T06:10:39;15.70;99.90
48912;DHT22;34722;52.108;5.044;2022-08-30T06:13:07;15.80;99.90
48912;DHT22;34722;52.108;5.044;2022-08-30T06:15:33;15.80;99.90
48912;DHT22;34722;52.108;5.044;2022-08-30T06:17:58;16.00;99.90
48912;DHT22;34722;52.108;5.044;2022-08-30T06:20:24;15.90;99.90
48912;DHT22;34722;52.108;5.044;2022-08-30T06:22:50;16.00;99.90
48912;DHT22;34722;52.108;5.044;2022-08-30T06:25:16;16.10;99.90
48912;DHT22;34722;52.108;5.044;2022-08-30T06:27:42;16.20;99.90
48912;DHT22;34722;52.108;5.044;2022-08-30T06:30:08;16.50;99.90
48912;DHT22;34722;52.108;5.044;2022-08-30T06:32:36;16.70;99.90
48912;DHT22;34722;52.108;5.044;2022-08-30T06:35:04;17.20;91.60
48912;DHT22;34722;52.108;5.044;2022-08-30T06:37:31;18.20;39.30
48912;DHT22;34722;52.108;5.044;2022-08-30T06:39:58;19.50;1.00
48912;DHT22;34722;52.108;5.044;2022-08-30T06:42:25;20.40;1.00
48912;DHT22;34722;52.108;5.044;2022-08-30T06:45:02;21.80;1.00
48912;DHT22;34722;52.108;5.044;2022-08-30T06:47:29;23.00;1.00
48912;DHT22;34722;52.108;5.044;2022-08-30T06:49:57;23.00;99.90
48912;DHT22;34722;52.108;5.044;2022-08-30T06:52:26;23.50;99.90
48912;DHT22;34722;52.108;5.044;2022-08-30T06:54:53;24.40;1.00
48912;DHT22;34722;52.108;5.044;2022-08-30T06:57:22;24.70;99.90
48912;DHT22;34722;52.108;5.044;2022-08-30T06:59:48;24.20;99.90
48912;DHT22;34722;52.108;5.044;2022-08-30T07:02:14;24.90;99.90
48912;DHT22;34722;52.108;5.044;2022-08-30T07:04:39;25.00;99.90
48912;DHT22;34722;52.108;5.044;2022-08-30T07:07:05;24.60;99.90
48912;DHT22;34722;52.108;5.044;2022-08-30T07:09:34;24.00;99.90
48912;DHT22;34722;52.108;5.044;2022-08-30T07:12:03;23.50;99.90
48912;DHT22;34722;52.108;5.044;2022-08-30T07:14:31;23.00;99.90
48912;DHT22;34722;52.108;5.044;2022-08-30T07:16:56;23.30;99.90
48912;DHT22;34722;52.108;5.044;2022-08-30T07:19:23;23.80;99.90
48912;DHT22;34722;52.108;5.044;2022-08-30T07:21:49;24.60;99.90
48912;DHT22;34722;52.108;5.044;2022-08-30T07:24:15;24.90;99.90
48912;DHT22;34722;52.108;5.044;2022-08-30T07:26:43;24.90;97.00
48912;DHT22;34722;52.108;5.044;2022-08-30T07:29:11;25.20;79.00
48912;DHT22;34722;52.108;5.044;2022-08-30T07:31:37;26.20;52.20
48912;DHT22;34722;52.108;5.044;2022-08-30T07:34:05;26.10;20.00
48912;DHT22;34722;52.108;5.044;2022-08-30T07:36:32;25.60;11.30
48912;DHT22;34722;52.108;5.044;2022-08-30T07:38:58;26.00;2.60
48912;DHT22;34722;52.108;5.044;2022-08-30T07:41:30;25.90;1.00
48912;DHT22;34722;52.108;5.044;2022-08-30T07:43:56;26.40;1.00
48912;DHT22;34722;52.108;5.044;2022-08-30T07:46:23;26.00;1.00
48912;DHT22;34722;52.108;5.044;2022-08-30T07:48:49;26.90;1.00
48912;DHT22;34722;52.108;5.044;2022-08-30T07:51:18;27.30;1.00
48912;DHT22;34722;52.108;5.044;2022-08-30T07:53:44;27.40;1.00
48912;DHT22;34722;52.108;5.044;2022-08-30T07:56:10;27.50;1.00
48912;DHT22;34722;52.108;5.044;2022-08-30T07:58:36;27.20;1.00
48912;DHT22;34722;52.108;5.044;2022-08-30T08:01:07;27.50;1.00
48912;DHT22;34722;52.108;5.044;2022-08-30T08:03:33;28.00;1.00
48912;DHT22;34722;52.108;5.044;2022-08-30T08:06:02;27.20;1.00
48912;DHT22;34722;52.108;5.044;2022-08-30T08:08:30;26.90;1.00
48912;DHT22;34722;52.108;5.044;2022-08-30T08:10:56;25.60;1.00
48912;DHT22;34722;52.108;5.044;2022-08-30T08:13:22;26.30;1.00
48912;DHT22;34722;52.108;5.044;2022-08-30T08:15:48;26.70;1.00
48912;DHT22;34722;52.108;5.044;2022-08-30T08:18:16;27.20;1.00
48912;DHT22;34722;52.108;5.044;2022-08-30T08:20:42;27.80;1.00
48912;DHT22;34722;52.108;5.044;2022-08-30T08:23:07;28.90;1.00
48912;DHT22;34722;52.108;5.044;2022-08-30T08:25:37;28.40;1.00
48912;DHT22;34722;52.108;5.044;2022-08-30T08:28:04;28.30;1.00
48912;DHT22;34722;52.108;5.044;2022-08-30T08:30:33;27.10;1.00
48912;DHT22;34722;52.108;5.044;2022-08-30T08:32:59;27.40;1.00
48912;DHT22;34722;52.108;5.044;2022-08-30T08:35:26;27.30;1.00
48912;DHT22;34722;52.108;5.044;2022-08-30T08:37:51;27.10;1.00
48912;DHT22;34722;52.108;5.044;2022-08-30T08:40:18;28.30;1.00
48912;DHT22;34722;52.108;5.044;2022-08-30T08:50:48;31.20;1.00
48912;DHT22;34722;52.108;5.044;2022-08-30T08:53:34;31.00;1.00
48912;DHT22;34722;52.108;5.044;2022-08-30T08:56:01;31.50;1.00
48912;DHT22;34722;52.108;5.044;2022-08-30T08:58:31;31.30;1.00
48912;DHT22;34722;52.108;5.044;2022-08-30T09:01:02;30.70;1.00
48912;DHT22;34722;52.108;5.044;2022-08-30T09:03:28;29.60;1.00
48912;DHT22;34722;52.108;5.044;2022-08-30T09:05:55;29.40;1.00
48912;DHT22;34722;52.108;5.044;2022-08-30T09:08:25;30.40;1.00
48912;DHT22;34722;52.108;5.044;2022-08-30T09:11:04;31.40;1.00
48912;DHT22;34722;52.108;5.044;2022-08-30T09:13:34;31.00;1.00
48912;DHT22;34722;52.108;5.044;2022-08-30T09:16:04;32.00;1.00
48912;DHT22;34722;52.108;5.044;2022-08-30T09:18:46;31.50;1.00
48912;DHT22;34722;52.108;5.044;2022-08-30T09:21:21;30.30;1.00
48912;DHT22;34722;52.108;5.044;2022-08-30T09:23:53;31.00;1.00
48912;DHT22;34722;52.108;5.044;2022-08-30T09:26:36;31.40;1.00
48912;DHT22;34722;52.108;5.044;2022-08-30T09:29:02;31.60;1.00
48912;DHT22;34722;52.108;5.044;2022-08-30T09:31:31;30.30;1.00
48912;DHT22;34722;52.108;5.044;2022-08-30T09:34:07;28.80;1.00
48912;DHT22;34722;52.108;5.044;2022-08-30T09:36:54;27.90;1.00
48912;DHT22;34722;52.108;5.044;2022-08-30T09:41:53;29.20;1.00
48912;DHT22;34722;52.108;5.044;2022-08-30T09:44:26;29.20;1.00
48912;DHT22;34722;52.108;5.044;2022-08-30T09:46:59;29.10;1.00
48912;DHT22;34722;52.108;5.044;2022-08-30T09:49:38;29.10;1.00
48912;DHT22;34722;52.108;5.044;2022-08-30T09:52:32;30.00;1.00
48912;DHT22;34722;52.108;5.044;2022-08-30T09:55:16;29.20;1.00
48912;DHT22;34722;52.108;5.044;2022-08-30T10:06:30;29.10;1.00
48912;DHT22;34722;52.108;5.044;2022-08-30T10:14:57;31.00;1.00
48912;DHT22;34722;52.108;5.044;2022-08-30T10:23:51;30.30;1.00
48912;DHT22;34722;52.108;5.044;2022-08-30T10:30:21;28.70;1.00
48912;DHT22;34722;52.108;5.044;2022-08-30T10:35:45;30.30;1.00
48912;DHT22;34722;52.108;5.044;2022-08-30T10:38:35;31.00;1.00
48912;DHT22;34722;52.108;5.044;2022-08-30T10:41:28;31.30;1.00
48912;DHT22;34722;52.108;5.044;2022-08-30T10:47:02;30.20;1.00
48912;DHT22;34722;52.108;5.044;2022-08-30T10:49:34;29.30;1.00
48912;DHT22;34722;52.108;5.044;2022-08-30T10:52:38;29.60;1.00
48912;DHT22;34722;52.108;5.044;2022-08-30T10:55:18;30.60;1.00
48912;DHT22;34722;52.108;5.044;2022-08-30T10:57:47;31.80;1.00
48912;DHT22;34722;52.108;5.044;2022-08-30T11:00:27;30.90;1.00
48912;DHT22;34722;52.108;5.044;2022-08-30T11:03:34;32.30;1.00
48912;DHT22;34722;52.108;5.044;2022-08-30T11:09:28;32.90;1.00
48912;DHT22;34722;52.108;5.044;2022-08-30T11:15:19;31.80;1.00
48912;DHT22;34722;52.108;5.044;2022-08-30T11:18:09;31.40;1.00
48912;DHT22;34722;52.108;5.044;2022-08-30T11:20:49;30.80;1.00
48912;DHT22;34722;52.108;5.044;2022-08-30T11:23:28;32.10;1.00
48912;DHT22;34722;52.108;5.044;2022-08-30T11:26:06;32.70;1.00
48912;DHT22;34722;52.108;5.044;2022-08-30T11:31:30;33.00;1.00
48912;DHT22;34722;52.108;5.044;2022-08-30T11:33:58;32.60;1.00
48912;DHT22;34722;52.108;5.044;2022-08-30T11:41:33;33.90;1.00
48912;DHT22;34722;52.108;5.044;2022-08-30T11:44:30;34.00;1.00
48912;DHT22;34722;52.108;5.044;2022-08-30T11:47:01;33.00;1.00
48912;DHT22;34722;52.108;5.044;2022-08-30T11:50:08;33.40;1.00
48912;DHT22;34722;52.108;5.044;2022-08-30T11:52:42;34.00;1.00
48912;DHT22;34722;52.108;5.044;2022-08-30T11:55:34;33.60;1.00
48912;DHT22;34722;52.108;5.044;2022-08-30T12:01:35;33.30;1.00
48912;DHT22;34722;52.108;5.044;2022-08-30T12:14:54;33.90;1.00
48912;DHT22;34722;52.108;5.044;2022-08-30T12:17:32;33.30;1.00
48912;DHT22;34722;52.108;5.044;2022-08-30T12:20:44;33.30;1.00
48912;DHT22;34722;52.108;5.044;2022-08-30T12:25:48;32.60;1.00
48912;DHT22;34722;52.108;5.044;2022-08-30T12:28:24;33.00;1.00
48912;DHT22;34722;52.108;5.044;2022-08-30T12:30:51;32.80;1.00
48912;DHT22;34722;52.108;5.044;2022-08-30T12:33:29;32.00;1.00
48912;DHT22;34722;52.108;5.044;2022-08-30T12:35:57;30.40;1.00
48912;DHT22;34722;52.108;5.044;2022-08-30T12:38:24;29.20;1.00
48912;DHT22;34722;52.108;5.044;2022-08-30T12:41:07;28.50;1.00
48912;DHT22;34722;52.108;5.044;2022-08-30T12:43:49;28.60;1.00
48912;DHT22;34722;52.108;5.044;2022-08-30T12:46:23;27.70;1.00
48912;DHT22;34722;52.108;5.044;2022-08-30T12:48:49;27.50;1.00
48912;DHT22;34722;52.108;5.044;2022-08-30T12:51:34;27.30;1.00
48912;DHT22;34722;52.108;5.044;2022-08-30T12:57:04;26.80;1.00
48912;DHT22;34722;52.108;5.044;2022-08-30T12:59:51;26.70;1.00
48912;DHT22;34722;52.108;5.044;2022-08-30T13:02:20;26.50;1.00
48912;DHT22;34722;52.108;5.044;2022-08-30T13:04:50;26.20;1.00
48912;DHT22;34722;52.108;5.044;2022-08-30T13:07:30;26.20;1.00
48912;DHT22;34722;52.108;5.044;2022-08-30T13:10:12;26.30;1.00
48912;DHT22;34722;52.108;5.044;2022-08-30T13:12:39;26.60;1.00
48912;DHT22;34722;52.108;5.044;2022-08-30T13:15:18;26.60;1.00
48912;DHT22;34722;52.108;5.044;2022-08-30T13:17:47;26.40;1.00
48912;DHT22;34722;52.108;5.044;2022-08-30T13:23:08;26.20;1.00
48912;DHT22;34722;52.108;5.044;2022-08-30T13:25:36;26.30;1.00
48912;DHT22;34722;52.108;5.044;2022-08-30T13:28:07;26.10;1.00
48912;DHT22;34722;52.108;5.044;2022-08-30T13:30:38;26.20;1.00
48912;DHT22;34722;52.108;5.044;2022-08-30T13:33:24;26.40;1.00
48912;DHT22;34722;52.108;5.044;2022-08-30T13:36:04;26.20;1.00
48912;DHT22;34722;52.108;5.044;2022-08-30T13:38:34;26.10;1.00
48912;DHT22;34722;52.108;5.044;2022-08-30T13:41:02;26.10;1.00
48912;DHT22;34722;52.108;5.044;2022-08-30T13:43:37;26.00;1.00
48912;DHT22;34722;52.108;5.044;2022-08-30T13:46:17;25.80;1.00
48912;DHT22;34722;52.108;5.044;2022-08-30T13:48:55;25.90;1.00
48912;DHT22;34722;52.108;5.044;2022-08-30T13:51:27;25.90;1.00
48912;DHT22;34722;52.108;5.044;2022-08-30T13:53:55;25.90;1.00
48912;DHT22;34722;52.108;5.044;2022-08-30T13:56:26;26.00;1.00
48912;DHT22;34722;52.108;5.044;2022-08-30T13:59:04;26.10;1.00
48912;DHT22;34722;52.108;5.044;2022-08-30T14:01:30;26.00;1.00
48912;DHT22;34722;52.108;5.044;2022-08-30T14:03:56;26.30;1.00
48912;DHT22;34722;52.108;5.044;2022-08-30T14:06:22;26.20;1.00
48912;DHT22;34722;52.108;5.044;2022-08-30T14:08:51;26.30;1.00
48912;DHT22;34722;52.108;5.044;2022-08-30T14:11:18;26.00;1.00
48912;DHT22;34722;52.108;5.044;2022-08-30T14:13:45;26.10;1.00
48912;DHT22;34722;52.108;5.044;2022-08-30T14:16:14;26.20;1.00
48912;DHT22;34722;52.108;5.044;2022-08-30T14:18:40;26.30;1.00
48912;DHT22;34722;52.108;5.044;2022-08-30T14:21:08;25.80;1.00
48912;DHT22;34722;52.108;5.044;2022-08-30T14:23:38;25.80;1.00
48912;DHT22;34722;52.108;5.044;2022-08-30T14:26:10;25.80;1.00
48912;DHT22;34722;52.108;5.044;2022-08-30T14:28:41;25.80;1.00
48912;DHT22;34722;52.108;5.044;2022-08-30T14:31:07;25.80;1.00
48912;DHT22;34722;52.108;5.044;2022-08-30T14:33:36;25.60;1.00
48912;DHT22;34722;52.108;5.044;2022-08-30T14:36:05;25.50;1.00
48912;DHT22;34722;52.108;5.044;2022-08-30T14:38:32;25.60;1.00
48912;DHT22;34722;52.108;5.044;2022-08-30T14:40:58;25.50;1.00
48912;DHT22;34722;52.108;5.044;2022-08-30T14:43:30;25.70;1.00
48912;DHT22;34722;52.108;5.044;2022-08-30T14:46:00;25.70;1.00
48912;DHT22;34722;52.108;5.044;2022-08-30T14:51:02;25.50;1.00
48912;DHT22;34722;52.108;5.044;2022-08-30T14:53:28;25.50;1.00
48912;DHT22;34722;52.108;5.044;2022-08-30T14:55:54;25.20;1.00
48912;DHT22;34722;52.108;5.044;2022-08-30T14:58:20;25.20;1.00
48912;DHT22;34722;52.108;5.044;2022-08-30T15:00:50;25.40;1.00
48912;DHT22;34722;52.108;5.044;2022-08-30T15:03:16;25.10;1.00
48912;DHT22;34722;52.108;5.044;2022-08-30T15:05:48;24.90;1.00
48912;DHT22;34722;52.108;5.044;2022-08-30T15:08:15;24.80;1.00
48912;DHT22;34722;52.108;5.044;2022-08-30T15:10:47;24.80;1.00
48912;DHT22;34722;52.108;5.044;2022-08-30T15:13:16;24.70;1.00
48912;DHT22;34722;52.108;5.044;2022-08-30T15:15:42;24.50;1.00
48912;DHT22;34722;52.108;5.044;2022-08-30T15:18:16;24.40;1.00
48912;DHT22;34722;52.108;5.044;2022-08-30T15:20:47;24.50;1.00
48912;DHT22;34722;52.108;5.044;2022-08-30T15:23:25;24.70;1.00
48912;DHT22;34722;52.108;5.044;2022-08-30T15:26:12;24.60;1.00
48912;DHT22;34722;52.108;5.044;2022-08-30T15:29:23;24.30;1.00
48912;DHT22;34722;52.108;5.044;2022-08-30T15:32:29;24.30;1.00
48912;DHT22;34722;52.108;5.044;2022-08-30T15:38:37;24.10;1.00
48912;DHT22;34722;52.108;5.044;2022-08-30T15:44:17;23.80;1.00
48912;DHT22;34722;52.108;5.044;2022-08-30T15:46:48;23.70;1.00
48912;DHT22;34722;52.108;5.044;2022-08-30T15:49:20;23.80;1.00
48912;DHT22;34722;52.108;5.044;2022-08-30T15:51:47;23.60;1.00
48912;DHT22;34722;52.108;5.044;2022-08-30T15:54:18;23.60;1.00
48912;DHT22;34722;52.108;5.044;2022-08-30T15:56:45;23.50;1.00
48912;DHT22;34722;52.108;5.044;2022-08-30T15:59:12;23.60;1.00
48912;DHT22;34722;52.108;5.044;2022-08-30T16:01:40;23.50;1.00
48912;DHT22;34722;52.108;5.044;2022-08-30T16:04:06;23.60;1.00
48912;DHT22;34722;52.108;5.044;2022-08-30T16:06:34;23.50;1.00
48912;DHT22;34722;52.108;5.044;2022-08-30T16:09:08;23.50;1.00
48912;DHT22;34722;52.108;5.044;2022-08-30T16:11:35;23.40;1.00
48912;DHT22;34722;52.108;5.044;2022-08-30T16:14:02;23.40;1.00
48912;DHT22;34722;52.108;5.044;2022-08-30T16:16:28;23.50;1.00
48912;DHT22;34722;52.108;5.044;2022-08-30T16:18:55;23.30;1.00
48912;DHT22;34722;52.108;5.044;2022-08-30T16:21:33;23.30;1.00
48912;DHT22;34722;52.108;5.044;2022-08-30T16:24:04;23.40;1.00
48912;DHT22;34722;52.108;5.044;2022-08-30T16:26:32;23.20;1.00
48912;DHT22;34722;52.108;5.044;2022-08-30T16:29:02;23.20;1.00
48912;DHT22;34722;52.108;5.044;2022-08-30T16:31:29;23.20;1.00
48912;DHT22;34722;52.108;5.044;2022-08-30T16:33:56;23.00;1.00
48912;DHT22;34722;52.108;5.044;2022-08-30T16:36:25;23.00;1.00
48912;DHT22;34722;52.108;5.044;2022-08-30T16:38:52;23.00;1.00
48912;DHT22;34722;52.108;5.044;2022-08-30T16:41:19;22.80;1.00
48912;DHT22;34722;52.108;5.044;2022-08-30T16:43:45;22.60;1.00
48912;DHT22;34722;52.108;5.044;2022-08-30T16:46:14;22.60;1.00
48912;DHT22;34722;52.108;5.044;2022-08-30T16:48:44;22.50;1.00
48912;DHT22;34722;52.108;5.044;2022-08-30T16:51:13;22.40;1.00
48912;DHT22;34722;52.108;5.044;2022-08-30T16:53:40;22.40;1.00
48912;DHT22;34722;52.108;5.044;2022-08-30T16:56:11;22.40;1.00
48912;DHT22;34722;52.108;5.044;2022-08-30T16:58:38;22.30;1.00
48912;DHT22;34722;52.108;5.044;2022-08-30T17:01:04;22.20;1.00
48912;DHT22;34722;52.108;5.044;2022-08-30T17:03:40;22.10;1.00
48912;DHT22;34722;52.108;5.044;2022-08-30T17:06:29;22.00;1.00
48912;DHT22;34722;52.108;5.044;2022-08-30T17:08:55;22.00;1.00
48912;DHT22;34722;52.108;5.044;2022-08-30T17:11:21;22.00;1.00
48912;DHT22;34722;52.108;5.044;2022-08-30T17:13:47;22.00;1.00
48912;DHT22;34722;52.108;5.044;2022-08-30T17:16:13;22.00;1.00
48912;DHT22;34722;52.108;5.044;2022-08-30T17:18:40;21.90;1.00
48912;DHT22;34722;52.108;5.044;2022-08-30T17:21:06;21.90;1.00
48912;DHT22;34722;52.108;5.044;2022-08-30T17:23:32;21.80;1.00
48912;DHT22;34722;52.108;5.044;2022-08-30T17:25:58;21.70;1.00
48912;DHT22;34722;52.108;5.044;2022-08-30T17:28:25;21.70;1.00
48912;DHT22;34722;52.108;5.044;2022-08-30T17:30:54;21.70;1.00
48912;DHT22;34722;52.108;5.044;2022-08-30T17:33:20;21.70;1.00